createdAt,value
2019-03-21T00:00:08.211Z,18.67
2019-03-21T00:02:37.994Z,21.50
2019-03-21T00:05:08.611Z,15.48
2019-03-21T00:07:38.764Z,17.57
2019-03-21T00:10:41.195Z,29.50
2019-03-21T00:13:11.187Z,20.37
2019-03-21T00:15:42.766Z,20.35
2019-03-21T00:20:41.933Z,15.58
2019-03-21T00:23:11.706Z,24.93
2019-03-21T00:25:41.575Z,17.20
2019-03-21T00:28:11.424Z,15.85
2019-03-21T00:30:41.534Z,14.25
2019-03-21T00:33:11.742Z,15.45
2019-03-21T00:35:41.634Z,15.70
2019-03-21T00:38:11.395Z,16.65
2019-03-21T00:40:44.002Z,14.00
2019-03-21T00:45:41.165Z,15.25
2019-03-21T00:48:13.712Z,18.80
2019-03-21T00:50:43.585Z,16.85
2019-03-21T00:53:13.489Z,17.35
2019-03-21T00:55:44.179Z,17.70
2019-03-21T00:58:13.990Z,17.20
2019-03-21T01:00:46.328Z,12.37
2019-03-21T01:03:16.753Z,17.20
2019-03-21T01:05:47.077Z,15.00
2019-03-21T01:08:17.242Z,15.63
2019-03-21T01:10:47.230Z,18.02
2019-03-21T01:13:17.336Z,15.63
2019-03-21T01:15:48.133Z,17.17
2019-03-21T01:18:17.897Z,14.73
2019-03-21T01:20:48.022Z,14.87
2019-03-21T01:23:18.204Z,16.40
2019-03-21T01:25:49.897Z,21.07
2019-03-21T01:28:20.377Z,18.32
2019-03-21T01:30:50.450Z,16.90
2019-03-21T01:33:21.033Z,15.68
2019-03-21T01:35:50.825Z,12.80
2019-03-21T01:38:23.046Z,20.25
2019-03-21T01:40:52.961Z,16.25
2019-03-21T01:43:23.116Z,19.25
2019-03-21T01:45:52.983Z,19.37
2019-03-21T01:48:23.481Z,21.17
2019-03-21T01:50:53.285Z,23.87
2019-03-21T01:53:23.056Z,21.68
2019-03-21T01:55:52.911Z,16.02
2019-03-21T01:58:22.968Z,17.47
2019-03-21T02:00:52.987Z,19.43
2019-03-21T02:03:23.087Z,19.17
2019-03-21T02:05:52.852Z,17.07
2019-03-21T02:08:23.218Z,18.05
2019-03-21T02:10:53.142Z,18.73
2019-03-21T02:13:22.984Z,21.47
2019-03-21T02:15:59.332Z,17.80
2019-03-21T02:18:26.294Z,21.02
2019-03-21T02:20:56.157Z,19.52
2019-03-21T02:23:26.177Z,18.30
2019-03-21T02:25:56.292Z,19.50
2019-03-21T02:28:29.291Z,16.33
2019-03-21T02:30:59.180Z,17.05
2019-03-21T02:33:30.791Z,20.40
2019-03-21T02:36:05.987Z,17.07
2019-03-21T02:38:38.438Z,16.77
2019-03-21T02:41:08.833Z,18.05
2019-03-21T02:43:43.175Z,18.33
2019-03-21T02:46:15.417Z,17.80
2019-03-21T02:48:46.538Z,21.60
2019-03-21T02:51:17.681Z,18.87
2019-03-21T02:53:50.066Z,19.67
2019-03-21T02:56:22.814Z,22.17
2019-03-21T02:58:58.303Z,20.05
2019-03-21T03:01:33.943Z,20.82
2019-03-21T03:04:03.666Z,18.20
2019-03-21T03:06:35.905Z,18.73
2019-03-21T03:09:07.788Z,20.08
2019-03-21T03:11:40.421Z,19.02
2019-03-21T03:14:10.380Z,25.20
2019-03-21T03:16:42.552Z,20.97
2019-03-21T03:19:12.755Z,19.30
2019-03-21T03:21:45.567Z,19.65
2019-03-21T03:24:21.088Z,19.45
2019-03-21T03:26:54.272Z,15.88
2019-03-21T03:29:26.754Z,22.05
2019-03-21T03:31:56.603Z,15.83
2019-03-21T03:34:28.885Z,19.40
2019-03-21T03:37:05.078Z,19.32
2019-03-21T03:39:37.262Z,18.02
2019-03-21T03:42:07.045Z,19.87
2019-03-21T03:44:37.587Z,14.93
2019-03-21T03:47:07.764Z,18.20
2019-03-21T03:49:37.554Z,22.65
2019-03-21T03:52:07.395Z,19.90
2019-03-21T03:54:37.193Z,15.25
2019-03-21T03:57:07.034Z,20.75
2019-03-21T03:59:39.892Z,16.63
2019-03-21T04:02:15.041Z,18.25
2019-03-21T04:04:45.878Z,16.52
2019-03-21T04:07:15.687Z,14.70
2019-03-21T04:09:45.841Z,18.20
2019-03-21T04:12:16.084Z,17.27
2019-03-21T04:14:46.389Z,22.87
2019-03-21T04:17:16.266Z,16.77
2019-03-21T04:19:46.949Z,12.97
2019-03-21T04:22:20.002Z,20.67
2019-03-21T04:24:49.866Z,16.07
2019-03-21T04:27:24.071Z,16.73
2019-03-21T04:30:04.268Z,18.77
2019-03-21T04:32:34.095Z,24.82
2019-03-21T04:35:11.088Z,16.77
2019-03-21T04:37:43.637Z,16.73
2019-03-21T04:40:16.283Z,15.16
2019-03-21T04:42:46.382Z,9.28
2019-03-21T04:45:18.962Z,12.45
2019-03-21T04:47:54.071Z,14.00
2019-03-21T04:50:25.616Z,11.75
2019-03-21T04:52:56.466Z,12.93
2019-03-21T04:55:26.477Z,15.47
2019-03-21T04:57:56.767Z,12.60
2019-03-21T05:00:28.443Z,18.60
2019-03-21T05:02:59.446Z,18.23
2019-03-21T05:05:29.250Z,17.35
2019-03-21T05:07:59.620Z,16.17
2019-03-21T05:10:29.766Z,16.07
2019-03-21T05:12:59.612Z,15.83
2019-03-21T05:15:35.348Z,13.75
2019-03-21T05:18:13.463Z,18.32
2019-03-21T05:20:43.229Z,18.48
2019-03-21T05:23:13.094Z,17.85
2019-03-21T05:26:08.904Z,21.20
2019-03-21T05:28:39.822Z,16.90
2019-03-21T05:31:13.713Z,17.40
2019-03-21T05:33:44.522Z,14.13
2019-03-21T05:36:14.694Z,16.07
2019-03-21T05:38:44.526Z,15.13
2019-03-21T05:41:14.802Z,16.05
2019-03-21T05:43:48.237Z,13.34
2019-03-21T05:46:26.705Z,16.50
2019-03-21T05:48:48.641Z,15.10
2019-03-21T05:51:18.529Z,15.65
2019-03-21T05:53:48.328Z,16.80
2019-03-21T05:56:18.155Z,18.23
2019-03-21T05:58:47.938Z,17.23
2019-03-21T06:01:17.770Z,14.90
2019-03-21T06:03:52.162Z,15.20
2019-03-21T06:06:26.681Z,15.37
2019-03-21T06:08:56.544Z,16.25
2019-03-21T06:11:26.432Z,14.43
2019-03-21T06:13:57.282Z,14.83
2019-03-21T06:16:37.275Z,16.62
2019-03-21T06:19:13.824Z,15.63
2019-03-21T06:22:13.796Z,14.93
2019-03-21T06:25:15.934Z,15.48
2019-03-21T06:27:44.566Z,16.43
2019-03-21T06:30:14.675Z,16.02
2019-03-21T06:32:44.485Z,23.93
2019-03-21T06:35:24.400Z,13.43
2019-03-21T06:37:54.487Z,14.10
2019-03-21T06:40:26.373Z,13.53
2019-03-21T06:42:56.234Z,18.12
2019-03-21T06:45:26.068Z,15.20
2019-03-21T06:48:02.251Z,11.03
2019-03-21T06:50:32.147Z,11.40
2019-03-21T06:53:03.284Z,15.45
2019-03-21T06:55:31.869Z,13.22
2019-03-21T06:58:01.788Z,20.32
2019-03-21T07:00:32.079Z,15.90
2019-03-21T07:03:02.061Z,14.77
2019-03-21T07:05:32.176Z,16.12
2019-03-21T07:08:02.283Z,12.53
2019-03-21T07:10:32.160Z,11.57
2019-03-21T07:13:02.229Z,15.32
2019-03-21T07:15:32.064Z,17.82
2019-03-21T07:18:01.904Z,12.00
2019-03-21T07:20:31.700Z,13.27
2019-03-21T07:23:01.781Z,18.27
2019-03-21T07:25:31.993Z,16.13
2019-03-21T07:28:01.871Z,16.27
2019-03-21T07:30:32.020Z,11.77
2019-03-21T07:33:02.141Z,13.17
2019-03-21T07:35:32.071Z,19.63
2019-03-21T07:38:02.101Z,12.20
2019-03-21T07:40:33.987Z,12.17
2019-03-21T07:43:03.812Z,12.05
2019-03-21T07:45:33.596Z,14.43
2019-03-21T07:48:05.310Z,11.90
2019-03-21T07:50:34.599Z,14.53
2019-03-21T07:53:04.525Z,11.68
2019-03-21T07:55:34.830Z,10.28
2019-03-21T07:58:04.642Z,10.07
2019-03-21T08:00:34.664Z,10.57
2019-03-21T08:03:06.756Z,16.67
2019-03-21T08:05:40.627Z,13.80
2019-03-21T08:08:08.621Z,13.58
2019-03-21T08:10:38.865Z,14.50
2019-03-21T08:13:08.691Z,10.60
2019-03-21T08:15:39.635Z,15.70
2019-03-21T08:18:09.452Z,17.00
2019-03-21T08:20:58.408Z,11.55
2019-03-21T08:23:25.447Z,14.70
2019-03-21T08:25:57.390Z,11.97
2019-03-21T08:28:34.150Z,10.50
2019-03-21T08:31:18.939Z,9.98
2019-03-21T08:33:49.904Z,10.07
2019-03-21T08:38:58.910Z,11.50
2019-03-21T08:41:30.729Z,10.23
2019-03-21T08:44:02.922Z,11.65
2019-03-21T08:46:33.920Z,11.35
2019-03-21T08:49:03.750Z,13.37
2019-03-21T08:51:33.689Z,13.00
2019-03-21T08:54:08.288Z,9.18
2019-03-21T08:56:39.404Z,13.93
2019-03-21T08:59:09.484Z,10.50
2019-03-21T09:01:39.285Z,11.63
2019-03-21T09:04:09.511Z,9.83
2019-03-21T09:06:39.623Z,8.97
2019-03-21T09:09:10.400Z,10.03
2019-03-21T09:11:40.217Z,10.37
2019-03-21T09:14:10.389Z,12.95
2019-03-21T09:16:40.243Z,12.60
2019-03-21T09:19:10.435Z,10.82
2019-03-21T09:21:40.783Z,11.23
2019-03-21T09:24:10.670Z,9.27
2019-03-21T09:26:40.512Z,9.37
2019-03-21T09:29:10.340Z,10.30
2019-03-21T09:31:41.244Z,6.97
2019-03-21T09:34:11.971Z,11.10
2019-03-21T09:36:42.487Z,8.95
2019-03-21T09:41:41.191Z,10.93
2019-03-21T09:44:11.094Z,13.53
2019-03-21T09:46:50.385Z,9.20
2019-03-21T09:49:10.792Z,8.77
2019-03-21T09:51:40.957Z,12.43
2019-03-21T09:54:11.181Z,10.08
2019-03-21T09:56:41.080Z,9.95
2019-03-21T09:59:11.250Z,9.10
2019-03-21T10:01:41.066Z,11.43
2019-03-21T10:04:11.163Z,6.57
2019-03-21T10:06:42.967Z,8.30
2019-03-21T10:09:13.098Z,10.85
2019-03-21T10:11:42.955Z,7.10
2019-03-21T10:14:12.818Z,15.07
2019-03-21T10:16:43.387Z,9.87
2019-03-21T10:21:43.476Z,10.30
2019-03-21T10:24:12.918Z,11.88
2019-03-21T10:26:43.551Z,6.17
2019-03-21T10:29:17.457Z,13.35
2019-03-21T10:31:47.334Z,9.55
2019-03-21T10:34:21.353Z,9.40
2019-03-21T10:36:51.500Z,9.90
2019-03-21T10:39:23.639Z,9.27
2019-03-21T10:41:53.546Z,9.90
2019-03-21T10:44:27.605Z,8.93
2019-03-21T10:46:57.477Z,10.15
2019-03-21T10:49:27.630Z,9.53
2019-03-21T10:51:57.490Z,11.77
2019-03-21T10:54:27.283Z,9.23
2019-03-21T10:56:58.161Z,8.13
2019-03-21T10:59:27.936Z,9.28
2019-03-21T11:02:06.875Z,10.13
2019-03-21T11:04:30.852Z,12.47
2019-03-21T11:07:01.876Z,11.15
2019-03-21T11:09:31.722Z,8.65
2019-03-21T11:12:10.605Z,7.75
2019-03-21T11:14:42.751Z,8.45
2019-03-21T11:17:31.464Z,10.13
2019-03-21T11:20:01.767Z,10.82
2019-03-21T11:22:31.852Z,9.33
2019-03-21T11:25:01.958Z,9.23
2019-03-21T11:27:32.073Z,9.83
2019-03-21T11:30:15.606Z,14.25
2019-03-21T11:32:36.361Z,6.67
2019-03-21T11:35:07.206Z,10.60
2019-03-21T11:37:37.094Z,9.48
2019-03-21T11:40:06.938Z,5.92
2019-03-21T11:42:37.101Z,5.83
2019-03-21T11:45:07.119Z,6.80
2019-03-21T11:47:41.593Z,4.90
2019-03-21T11:50:08.130Z,7.50
2019-03-21T11:52:41.006Z,5.25
2019-03-21T11:57:37.279Z,4.80
2019-03-21T12:00:07.216Z,6.22
2019-03-21T12:02:37.060Z,6.75
2019-03-21T12:05:07.217Z,9.57
2019-03-21T12:07:37.084Z,7.23
2019-03-21T12:10:08.058Z,4.30
2019-03-21T12:12:38.831Z,5.37
2019-03-21T12:15:08.952Z,6.15
2019-03-21T12:17:38.811Z,5.50
2019-03-21T12:20:08.940Z,5.72
2019-03-21T12:22:38.818Z,6.53
2019-03-21T12:25:08.710Z,7.67
2019-03-21T12:27:38.802Z,5.75
2019-03-21T12:30:10.523Z,3.62
2019-03-21T12:32:40.353Z,4.15
2019-03-21T12:35:10.165Z,3.72
2019-03-21T12:37:41.525Z,4.90
2019-03-21T12:40:11.401Z,3.22
2019-03-21T12:42:41.250Z,2.70
2019-03-21T12:45:11.155Z,2.57
2019-03-21T12:47:41.208Z,5.00
2019-03-21T12:50:11.111Z,3.93
2019-03-21T12:52:43.321Z,3.22
2019-03-21T12:55:15.202Z,5.40
2019-03-21T12:57:46.536Z,5.67
2019-03-21T13:00:19.457Z,2.62
2019-03-21T13:02:50.510Z,6.22
2019-03-21T13:05:28.429Z,4.30
2019-03-21T13:07:58.597Z,5.05
2019-03-21T13:10:28.422Z,3.27
2019-03-21T13:12:58.372Z,4.20
2019-03-21T13:15:30.096Z,5.85
2019-03-21T13:18:00.648Z,2.70
2019-03-21T13:20:29.273Z,2.45
2019-03-21T13:22:59.328Z,3.85
2019-03-21T13:25:32.629Z,3.87
2019-03-21T13:28:04.730Z,3.98
2019-03-21T13:30:34.760Z,7.03
2019-03-21T13:33:05.021Z,4.80
2019-03-21T13:35:38.392Z,4.13
2019-03-21T13:38:08.217Z,3.22
2019-03-21T13:40:39.052Z,5.03
2019-03-21T13:43:11.199Z,4.70
2019-03-21T13:45:40.720Z,5.83
2019-03-21T13:48:10.535Z,6.60
2019-03-21T13:50:40.714Z,4.65
2019-03-21T13:53:18.595Z,4.10
2019-03-21T13:55:42.403Z,5.22
2019-03-21T14:00:42.122Z,2.60
2019-03-21T14:03:12.295Z,4.53
2019-03-21T14:05:42.386Z,2.47
2019-03-21T14:08:14.850Z,2.43
2019-03-21T14:10:48.479Z,4.95
2019-03-21T14:13:19.294Z,4.08
2019-03-21T14:15:51.160Z,3.55
2019-03-21T14:18:20.946Z,4.55
2019-03-21T14:20:50.775Z,4.75
2019-03-21T14:23:20.572Z,4.28
2019-03-21T14:25:50.424Z,2.93
2019-03-21T14:28:21.237Z,3.98
2019-03-21T14:30:52.093Z,3.70
2019-03-21T14:33:22.216Z,2.83
2019-03-21T14:35:52.012Z,3.93
2019-03-21T14:38:26.085Z,6.35
2019-03-21T14:40:52.663Z,4.37
2019-03-21T14:43:24.767Z,2.85
2019-03-21T14:45:56.022Z,6.10
2019-03-21T14:48:25.865Z,3.98
2019-03-21T14:50:55.697Z,5.53
2019-03-21T14:53:31.768Z,4.65
2019-03-21T14:56:01.826Z,4.78
2019-03-21T14:58:31.641Z,4.20
2019-03-21T15:01:01.496Z,5.95
2019-03-21T15:03:31.532Z,3.05
2019-03-21T15:06:01.360Z,1.40
2019-03-21T15:08:31.208Z,5.72
2019-03-21T15:11:01.239Z,1.90
2019-03-21T15:13:31.149Z,1.87
2019-03-21T15:16:00.879Z,3.87
2019-03-21T15:18:30.829Z,3.33
2019-03-21T15:21:01.643Z,4.78
2019-03-21T15:26:00.719Z,5.65
2019-03-21T15:28:30.554Z,3.37
2019-03-21T15:31:00.365Z,3.80
2019-03-21T15:33:30.144Z,5.40
2019-03-21T15:36:01.023Z,8.30
2019-03-21T15:38:30.913Z,4.65
2019-03-21T15:41:01.752Z,4.97
2019-03-21T15:43:31.917Z,2.85
2019-03-21T15:46:02.137Z,3.15
2019-03-21T15:48:31.997Z,3.55
2019-03-21T15:51:04.763Z,3.75
2019-03-21T15:53:31.731Z,5.53
2019-03-21T15:56:01.911Z,3.40
2019-03-21T15:58:31.753Z,3.42
2019-03-21T16:01:01.867Z,6.17
2019-03-21T16:03:32.984Z,2.90
2019-03-21T16:08:34.405Z,5.25
2019-03-21T16:11:07.030Z,5.58
2019-03-21T16:13:37.650Z,3.50
2019-03-21T16:16:07.535Z,4.80
2019-03-21T16:18:37.416Z,4.10
2019-03-21T16:21:07.263Z,4.40
2019-03-21T16:23:37.167Z,4.40
2019-03-21T16:26:07.254Z,4.05
2019-03-21T16:28:39.126Z,5.28
2019-03-21T16:31:10.237Z,9.35
2019-03-21T16:33:43.246Z,5.12
2019-03-21T16:36:10.354Z,5.70
2019-03-21T16:38:42.437Z,7.83
2019-03-21T16:41:13.345Z,6.63
2019-03-21T16:43:43.487Z,3.30
2019-03-21T16:46:13.651Z,4.83
2019-03-21T16:48:43.799Z,10.73
2019-03-21T16:51:13.627Z,6.23
2019-03-21T16:53:44.084Z,5.67
2019-03-21T16:56:15.851Z,6.30
2019-03-21T16:58:45.930Z,4.62
2019-03-21T17:01:17.090Z,4.03
2019-03-21T17:03:47.030Z,5.60
2019-03-21T17:06:16.911Z,8.45
2019-03-21T17:08:46.839Z,6.45
2019-03-21T17:11:17.753Z,10.43
2019-03-21T17:13:48.728Z,7.12
2019-03-21T17:16:24.413Z,19.32
2019-03-21T17:18:54.463Z,23.42
2019-03-21T17:21:27.963Z,16.25
2019-03-21T17:23:58.002Z,18.80
2019-03-21T17:26:29.040Z,22.90
2019-03-21T17:28:58.896Z,17.12
2019-03-21T17:31:29.237Z,15.15
2019-03-21T17:33:59.375Z,21.40
2019-03-21T17:36:29.237Z,14.60
2019-03-21T17:38:59.043Z,12.33
2019-03-21T17:41:29.650Z,13.30
2019-03-21T17:44:00.974Z,9.68
2019-03-21T17:46:30.903Z,8.70
2019-03-21T17:49:00.827Z,6.58
2019-03-21T17:51:30.699Z,9.65
2019-03-21T17:54:00.574Z,11.48
2019-03-21T17:56:30.490Z,6.10
2019-03-21T17:59:00.289Z,7.37
2019-03-21T18:01:31.210Z,12.58
2019-03-21T18:04:01.380Z,12.80
2019-03-21T18:06:31.445Z,10.73
2019-03-21T18:09:02.300Z,8.07
2019-03-21T18:11:32.455Z,10.13
2019-03-21T18:14:02.241Z,10.75
2019-03-21T18:16:32.322Z,8.68
2019-03-21T18:19:02.241Z,10.77
2019-03-21T18:21:32.369Z,11.28
2019-03-21T18:24:02.591Z,16.27
2019-03-21T18:26:32.428Z,20.77
2019-03-21T18:29:04.302Z,9.75
2019-03-21T18:31:35.408Z,10.53
2019-03-21T18:34:05.521Z,10.00
2019-03-21T18:36:36.473Z,9.20
2019-03-21T18:39:09.558Z,10.43
2019-03-21T18:41:41.410Z,5.53
2019-03-21T18:44:11.286Z,8.08
2019-03-21T18:46:42.369Z,10.90
2019-03-21T18:49:15.271Z,13.05
2019-03-21T18:51:47.058Z,12.93
2019-03-21T18:54:17.155Z,14.30
2019-03-21T18:56:47.174Z,15.50
2019-03-21T18:59:18.007Z,9.63
2019-03-21T19:04:16.421Z,18.17
2019-03-21T19:06:49.317Z,22.10
2019-03-21T19:09:19.813Z,26.57
2019-03-21T19:11:49.868Z,18.42
2019-03-21T19:14:25.356Z,14.83
2019-03-21T19:16:55.338Z,10.38
2019-03-21T19:19:26.142Z,8.13
2019-03-21T19:21:55.969Z,11.30
2019-03-21T19:24:27.800Z,9.70
2019-03-21T19:26:57.666Z,8.30
2019-03-21T19:29:27.805Z,9.03
2019-03-21T19:31:57.651Z,5.90
2019-03-21T19:34:27.492Z,16.70
2019-03-21T19:36:57.821Z,11.60
2019-03-21T19:39:27.716Z,32.30
2019-03-21T19:41:57.528Z,46.83
2019-03-21T19:44:27.320Z,65.20
2019-03-21T19:47:01.524Z,37.60
2019-03-21T19:49:36.053Z,25.50
2019-03-21T19:52:05.927Z,21.20
2019-03-21T19:54:37.207Z,36.17
2019-03-21T19:59:35.989Z,21.75
2019-03-21T20:02:06.932Z,18.02
2019-03-21T20:07:06.329Z,10.60
2019-03-21T20:09:36.210Z,9.00
2019-03-21T20:12:06.016Z,11.12
2019-03-21T20:14:42.194Z,7.17
2019-03-21T20:17:12.508Z,8.93
2019-03-21T20:19:42.281Z,8.47
2019-03-21T20:22:12.653Z,9.68
2019-03-21T20:24:43.103Z,9.50
2019-03-21T20:27:13.298Z,14.33
2019-03-21T20:29:43.109Z,12.03
2019-03-21T20:32:20.571Z,12.00
2019-03-21T20:34:44.688Z,13.53
2019-03-21T20:37:14.618Z,13.95
2019-03-21T20:39:44.857Z,25.30
2019-03-21T20:42:17.453Z,29.18
2019-03-21T20:44:47.549Z,28.62
2019-03-21T20:47:18.714Z,20.87
2019-03-21T20:49:50.759Z,18.65
2019-03-21T20:52:21.145Z,26.70
2019-03-21T20:54:51.508Z,25.00
2019-03-21T20:57:21.739Z,16.20
2019-03-21T20:59:51.936Z,10.87
2019-03-21T21:02:21.849Z,13.55
2019-03-21T21:04:51.696Z,11.05
2019-03-21T21:07:21.794Z,8.53
2019-03-21T21:09:52.697Z,10.85
2019-03-21T21:12:26.251Z,9.80
2019-03-21T21:14:56.396Z,11.53
2019-03-21T21:17:28.755Z,13.43
2019-03-21T21:19:58.566Z,8.83
2019-03-21T21:22:28.452Z,8.50
2019-03-21T21:24:58.480Z,7.90
2019-03-21T21:27:28.366Z,11.50
2019-03-21T21:29:58.482Z,11.05
2019-03-21T21:32:29.626Z,10.20
2019-03-21T21:38:47.632Z,9.20
2019-03-21T21:41:17.467Z,9.70
2019-03-21T21:43:48.287Z,10.13
2019-03-21T21:46:20.173Z,8.73
2019-03-21T21:48:51.235Z,10.18
2019-03-21T21:51:22.824Z,14.75
2019-03-21T21:53:52.670Z,14.13
2019-03-21T21:56:23.505Z,17.17
2019-03-21T21:58:53.570Z,15.50
2019-03-21T22:01:23.399Z,17.42
2019-03-21T22:04:04.637Z,14.85
2019-03-21T22:06:27.281Z,17.30
2019-03-21T22:08:57.154Z,23.98
2019-03-21T22:11:27.270Z,18.70
2019-03-21T22:14:03.709Z,18.87
2019-03-21T22:16:34.287Z,14.87
2019-03-21T22:19:04.076Z,12.82
2019-03-21T22:21:34.991Z,13.63
2019-03-21T22:24:15.806Z,14.20
2019-03-21T22:26:52.192Z,10.87
2019-03-21T22:29:22.165Z,13.93
2019-03-21T22:31:56.582Z,12.55
2019-03-21T22:34:26.639Z,16.07
2019-03-21T22:36:56.452Z,12.90
2019-03-21T22:39:26.351Z,19.07
2019-03-21T22:41:56.160Z,13.25
2019-03-21T22:44:27.008Z,18.62
2019-03-21T22:46:56.828Z,17.05
2019-03-21T22:49:27.357Z,17.87
2019-03-21T22:51:57.250Z,16.20
2019-03-21T22:54:29.099Z,18.40
2019-03-21T22:57:02.664Z,20.17
2019-03-21T22:59:32.893Z,18.95
2019-03-21T23:02:03.271Z,18.27
2019-03-21T23:04:33.392Z,26.05
2019-03-21T23:07:03.472Z,31.70
2019-03-21T23:09:33.284Z,30.50
2019-03-21T23:12:04.380Z,29.63
2019-03-21T23:17:02.981Z,22.93
2019-03-21T23:19:33.531Z,21.33
2019-03-21T23:22:03.669Z,21.90
2019-03-21T23:24:33.866Z,18.95
2019-03-21T23:27:04.036Z,13.00
2019-03-21T23:29:33.815Z,19.12
2019-03-21T23:32:03.672Z,15.38
2019-03-21T23:34:33.726Z,15.50
2019-03-21T23:37:03.625Z,12.43
2019-03-21T23:39:39.320Z,14.05
2019-03-21T23:42:10.671Z,12.03
2019-03-21T23:44:40.753Z,10.28
2019-03-21T23:47:11.656Z,10.20
2019-03-21T23:49:41.788Z,9.90
2019-03-21T23:52:11.819Z,15.13
2019-03-21T23:54:42.092Z,18.25
2019-03-21T23:57:11.781Z,12.63
2019-03-21T23:59:41.613Z,11.95
